Abbeville, MS (38601)

8:42 AM CDT on July 24, 2016 (GMT -0500)
Twelve Oaks Subdivision | | Change Station

Elev 404 ft 34.40 °N, 89.56 °W | Updated 2 minutes ago

Scattered Clouds
Scattered Clouds
85.1 °F
Feels Like 95 °F
N
0.0
Wind Variable Wind from South

Today
High -- | Low -- °F
--% Chance of Precip.
Yesterday
High -- | Low -- °F
Precip. -- in
Pressure 30.04 in
Visibility 9.0 miles
Clouds Few 800 ft
Scattered Clouds 6500 ft
Heat Index 95 °F
Dew Point 76 °F
Humidity 74%
Rainfall 0.00 in
Snow Depth Not available.
6:03 AM 8:05 PM
Waning Gibbous, 76% visible
METAR KUOX 241315Z AUTO 01004KT 9SM FEW008 SCT065 26/23 A3004 RMK AO2
Pressure 30.04 in
Visibility 9.0 miles
Clouds Few 800 ft
Scattered Clouds 6500 ft
Heat Index 95 °F
Dew Point 76 °F
Humidity 74%
Rainfall 0.00 in
Snow Depth Not available.
6:03 AM 8:05 PM
Waning Gibbous, 76% visible
METAR KUOX 241315Z AUTO 01004KT 9SM FEW008 SCT065 26/23 A3004 RMK AO2

10-Day Weather Forecast

Almanac

Astronomy

Jul. 24, 2016 Rise Set
Actual Time
Civil Twilight
Nautical Twilight
Astronomical Twilight
Moon
Length of Visible Light
Length of Day
Tomorrow will be .
, % of the Moon is Illuminated

Today's Extremes

State Highs State Lows

Community

WunderPhotos

Upload Photos

1,927,057 photos uploaded!

WunderBlog® & News

Nearby

Air Quality

  Air Quality AQ Index Pollutant
Not available.

Snow Depth

Station Depth Elevation

Earthquake Activity

City Distance Mag. Time & Date
Minimum magnitude displayed is 2.5.

Coastal Water Temperatures

Place Temperature

Stations

Nearby Weather Stations

Station Location Temp. Windchill Dew Point Humidity Wind Precip. Elev Updated Type
                   

Watches & Warnings

There are currently no watches in effect.